sensor_id;sensor_type;location;lat;lon;timestamp;P1;durP1;ratioP1;P2;durP2;ratioP2
29380;SDS011;16364;52.490;13.326;2023-08-07T00:02:19;2.30;;;2.20;;
29380;SDS011;16364;52.490;13.326;2023-08-07T00:04:45;6.30;;;2.50;;
29380;SDS011;16364;52.490;13.326;2023-08-07T00:07:10;2.80;;;2.40;;
29380;SDS011;16364;52.490;13.326;2023-08-07T00:09:35;3.23;;;2.53;;
29380;SDS011;16364;52.490;13.326;2023-08-07T00:12:00;2.60;;;2.40;;
29380;SDS011;16364;52.490;13.326;2023-08-07T00:14:25;3.93;;;2.50;;
29380;SDS011;16364;52.490;13.326;2023-08-07T00:16:51;3.80;;;2.40;;
29380;SDS011;16364;52.490;13.326;2023-08-07T00:19:16;7.67;;;2.63;;
29380;SDS011;16364;52.490;13.326;2023-08-07T00:21:41;3.27;;;2.50;;
29380;SDS011;16364;52.490;13.326;2023-08-07T00:24:07;2.70;;;2.50;;
29380;SDS011;16364;52.490;13.326;2023-08-07T00:26:32;2.60;;;2.40;;
29380;SDS011;16364;52.490;13.326;2023-08-07T00:28:57;4.20;;;3.20;;
29380;SDS011;16364;52.490;13.326;2023-08-07T00:31:23;4.77;;;3.07;;
29380;SDS011;16364;52.490;13.326;2023-08-07T00:33:48;4.90;;;2.93;;
29380;SDS011;16364;52.490;13.326;2023-08-07T00:36:16;3.30;;;2.70;;
29380;SDS011;16364;52.490;13.326;2023-08-07T00:38:42;3.83;;;3.43;;
29380;SDS011;16364;52.490;13.326;2023-08-07T00:41:07;4.43;;;3.30;;
29380;SDS011;16364;52.490;13.326;2023-08-07T00:43:33;6.40;;;2.97;;
29380;SDS011;16364;52.490;13.326;2023-08-07T00:45:59;4.30;;;2.90;;
29380;SDS011;16364;52.490;13.326;2023-08-07T00:48:24;5.63;;;3.10;;
29380;SDS011;16364;52.490;13.326;2023-08-07T00:50:49;4.10;;;3.00;;
29380;SDS011;16364;52.490;13.326;2023-08-07T00:53:16;3.40;;;2.90;;
29380;SDS011;16364;52.490;13.326;2023-08-07T00:55:41;3.50;;;2.80;;
29380;SDS011;16364;52.490;13.326;2023-08-07T00:58:07;3.50;;;3.20;;
29380;SDS011;16364;52.490;13.326;2023-08-07T01:00:32;4.40;;;3.37;;
29380;SDS011;16364;52.490;13.326;2023-08-07T01:02:57;10.50;;;3.87;;
29380;SDS011;16364;52.490;13.326;2023-08-07T01:05:24;4.57;;;3.23;;
29380;SDS011;16364;52.490;13.326;2023-08-07T01:07:50;6.30;;;3.07;;
29380;SDS011;16364;52.490;13.326;2023-08-07T01:10:19;4.20;;;2.50;;
29380;SDS011;16364;52.490;13.326;2023-08-07T01:12:48;3.67;;;2.93;;
29380;SDS011;16364;52.490;13.326;2023-08-07T01:15:16;3.47;;;2.63;;
29380;SDS011;16364;52.490;13.326;2023-08-07T01:17:45;4.60;;;3.50;;
29380;SDS011;16364;52.490;13.326;2023-08-07T01:20:11;4.90;;;3.33;;
29380;SDS011;16364;52.490;13.326;2023-08-07T01:22:36;6.33;;;3.37;;
29380;SDS011;16364;52.490;13.326;2023-08-07T01:25:02;3.60;;;2.97;;
29380;SDS011;16364;52.490;13.326;2023-08-07T01:27:32;4.83;;;3.20;;
29380;SDS011;16364;52.490;13.326;2023-08-07T01:30:11;3.30;;;3.00;;
29380;SDS011;16364;52.490;13.326;2023-08-07T01:35:06;2.83;;;2.40;;
29380;SDS011;16364;52.490;13.326;2023-08-07T01:37:33;3.53;;;3.23;;
29380;SDS011;16364;52.490;13.326;2023-08-07T01:39:59;4.83;;;3.77;;
29380;SDS011;16364;52.490;13.326;2023-08-07T01:42:25;4.70;;;3.73;;
29380;SDS011;16364;52.490;13.326;2023-08-07T01:44:50;3.93;;;3.63;;
29380;SDS011;16364;52.490;13.326;2023-08-07T01:47:16;4.37;;;3.30;;
29380;SDS011;16364;52.490;13.326;2023-08-07T01:49:41;3.60;;;3.30;;
29380;SDS011;16364;52.490;13.326;2023-08-07T01:52:07;5.93;;;3.77;;
29380;SDS011;16364;52.490;13.326;2023-08-07T01:54:32;4.77;;;3.83;;
29380;SDS011;16364;52.490;13.326;2023-08-07T01:56:57;3.87;;;3.47;;
29380;SDS011;16364;52.490;13.326;2023-08-07T01:59:22;5.97;;;4.73;;
29380;SDS011;16364;52.490;13.326;2023-08-07T02:01:48;5.70;;;4.20;;
29380;SDS011;16364;52.490;13.326;2023-08-07T02:04:13;4.57;;;4.27;;
29380;SDS011;16364;52.490;13.326;2023-08-07T02:06:38;4.17;;;3.83;;
29380;SDS011;16364;52.490;13.326;2023-08-07T02:09:03;3.93;;;3.63;;
29380;SDS011;16364;52.490;13.326;2023-08-07T02:11:29;8.17;;;4.40;;
29380;SDS011;16364;52.490;13.326;2023-08-07T02:13:54;10.57;;;4.50;;
29380;SDS011;16364;52.490;13.326;2023-08-07T02:16:20;4.10;;;3.73;;
29380;SDS011;16364;52.490;13.326;2023-08-07T02:18:46;7.23;;;4.47;;
29380;SDS011;16364;52.490;13.326;2023-08-07T02:21:11;5.00;;;3.73;;
29380;SDS011;16364;52.490;13.326;2023-08-07T02:23:36;5.37;;;3.73;;
29380;SDS011;16364;52.490;13.326;2023-08-07T02:26:01;4.80;;;4.40;;
29380;SDS011;16364;52.490;13.326;2023-08-07T02:28:27;4.93;;;4.53;;
29380;SDS011;16364;52.490;13.326;2023-08-07T02:30:52;5.63;;;4.07;;
29380;SDS011;16364;52.490;13.326;2023-08-07T02:33:19;4.97;;;4.40;;
29380;SDS011;16364;52.490;13.326;2023-08-07T02:35:44;6.93;;;6.20;;
29380;SDS011;16364;52.490;13.326;2023-08-07T02:38:09;4.67;;;4.30;;
29380;SDS011;16364;52.490;13.326;2023-08-07T02:40:35;9.00;;;4.10;;
29380;SDS011;16364;52.490;13.326;2023-08-07T02:43:00;5.40;;;4.90;;
29380;SDS011;16364;52.490;13.326;2023-08-07T02:45:25;4.87;;;4.47;;
29380;SDS011;16364;52.490;13.326;2023-08-07T02:47:50;5.30;;;4.80;;
29380;SDS011;16364;52.490;13.326;2023-08-07T02:50:16;5.80;;;4.60;;
29380;SDS011;16364;52.490;13.326;2023-08-07T02:52:41;10.70;;;5.00;;
29380;SDS011;16364;52.490;13.326;2023-08-07T02:55:06;7.83;;;4.97;;
29380;SDS011;16364;52.490;13.326;2023-08-07T02:57:32;8.90;;;4.87;;
29380;SDS011;16364;52.490;13.326;2023-08-07T02:59:57;4.90;;;4.40;;
29380;SDS011;16364;52.490;13.326;2023-08-07T03:02:22;8.63;;;4.77;;
29380;SDS011;16364;52.490;13.326;2023-08-07T03:04:47;6.10;;;4.50;;
29380;SDS011;16364;52.490;13.326;2023-08-07T03:07:13;8.20;;;5.70;;
29380;SDS011;16364;52.490;13.326;2023-08-07T03:09:38;8.10;;;4.97;;
29380;SDS011;16364;52.490;13.326;2023-08-07T03:12:03;5.30;;;4.80;;
29380;SDS011;16364;52.490;13.326;2023-08-07T03:14:29;6.47;;;5.47;;
29380;SDS011;16364;52.490;13.326;2023-08-07T03:16:55;7.00;;;5.57;;
29380;SDS011;16364;52.490;13.326;2023-08-07T03:19:20;8.00;;;5.70;;
29380;SDS011;16364;52.490;13.326;2023-08-07T03:21:46;7.83;;;5.50;;
29380;SDS011;16364;52.490;13.326;2023-08-07T03:24:11;5.83;;;5.23;;
29380;SDS011;16364;52.490;13.326;2023-08-07T03:26:37;6.00;;;4.57;;
29380;SDS011;16364;52.490;13.326;2023-08-07T03:29:09;8.00;;;5.30;;
29380;SDS011;16364;52.490;13.326;2023-08-07T03:31:34;7.17;;;5.30;;
29380;SDS011;16364;52.490;13.326;2023-08-07T03:33:59;7.23;;;5.80;;
29380;SDS011;16364;52.490;13.326;2023-08-07T03:36:24;8.73;;;5.80;;
29380;SDS011;16364;52.490;13.326;2023-08-07T03:38:50;6.50;;;5.90;;
29380;SDS011;16364;52.490;13.326;2023-08-07T03:41:15;6.03;;;5.43;;
29380;SDS011;16364;52.490;13.326;2023-08-07T03:43:40;6.53;;;5.80;;
29380;SDS011;16364;52.490;13.326;2023-08-07T03:46:05;7.83;;;6.33;;
29380;SDS011;16364;52.490;13.326;2023-08-07T03:48:31;5.87;;;5.37;;
29380;SDS011;16364;52.490;13.326;2023-08-07T03:51:03;6.33;;;5.30;;
29380;SDS011;16364;52.490;13.326;2023-08-07T03:53:29;10.13;;;6.73;;
29380;SDS011;16364;52.490;13.326;2023-08-07T03:55:54;7.37;;;5.67;;
29380;SDS011;16364;52.490;13.326;2023-08-07T03:58:19;8.27;;;6.03;;
29380;SDS011;16364;52.490;13.326;2023-08-07T04:00:44;7.20;;;6.37;;
29380;SDS011;16364;52.490;13.326;2023-08-07T04:03:09;7.87;;;5.60;;
29380;SDS011;16364;52.490;13.326;2023-08-07T04:05:35;9.17;;;5.60;;
29380;SDS011;16364;52.490;13.326;2023-08-07T04:08:00;6.37;;;5.03;;
29380;SDS011;16364;52.490;13.326;2023-08-07T04:10:25;6.63;;;6.07;;
29380;SDS011;16364;52.490;13.326;2023-08-07T04:12:50;9.73;;;6.70;;
29380;SDS011;16364;52.490;13.326;2023-08-07T04:15:16;7.37;;;5.13;;
29380;SDS011;16364;52.490;13.326;2023-08-07T04:17:41;7.23;;;6.27;;
29380;SDS011;16364;52.490;13.326;2023-08-07T04:20:06;11.10;;;6.47;;
29380;SDS011;16364;52.490;13.326;2023-08-07T04:22:32;8.03;;;5.20;;
29380;SDS011;16364;52.490;13.326;2023-08-07T04:24:57;5.63;;;5.13;;
29380;SDS011;16364;52.490;13.326;2023-08-07T04:27:22;9.43;;;5.73;;
29380;SDS011;16364;52.490;13.326;2023-08-07T04:29:47;5.90;;;5.30;;
29380;SDS011;16364;52.490;13.326;2023-08-07T04:32:12;7.47;;;5.90;;
29380;SDS011;16364;52.490;13.326;2023-08-07T04:34:38;7.33;;;5.03;;
29380;SDS011;16364;52.490;13.326;2023-08-07T04:37:03;8.60;;;5.00;;
29380;SDS011;16364;52.490;13.326;2023-08-07T04:39:28;10.23;;;4.90;;
29380;SDS011;16364;52.490;13.326;2023-08-07T04:41:54;5.47;;;5.03;;
29380;SDS011;16364;52.490;13.326;2023-08-07T04:44:19;7.30;;;5.47;;
29380;SDS011;16364;52.490;13.326;2023-08-07T04:46:44;5.60;;;4.20;;
29380;SDS011;16364;52.490;13.326;2023-08-07T04:49:09;5.77;;;4.77;;
29380;SDS011;16364;52.490;13.326;2023-08-07T04:51:35;5.50;;;5.00;;
29380;SDS011;16364;52.490;13.326;2023-08-07T04:54:00;4.40;;;3.90;;
29380;SDS011;16364;52.490;13.326;2023-08-07T04:56:25;11.43;;;3.73;;
29380;SDS011;16364;52.490;13.326;2023-08-07T04:58:51;6.53;;;3.80;;
29380;SDS011;16364;52.490;13.326;2023-08-07T05:01:16;5.83;;;4.40;;
29380;SDS011;16364;52.490;13.326;2023-08-07T05:03:41;6.60;;;4.40;;
29380;SDS011;16364;52.490;13.326;2023-08-07T05:06:06;5.77;;;4.37;;
29380;SDS011;16364;52.490;13.326;2023-08-07T05:08:32;7.30;;;4.10;;
29380;SDS011;16364;52.490;13.326;2023-08-07T05:10:57;3.80;;;3.33;;
29380;SDS011;16364;52.490;13.326;2023-08-07T05:13:22;7.80;;;3.07;;
29380;SDS011;16364;52.490;13.326;2023-08-07T05:15:47;4.40;;;4.00;;
29380;SDS011;16364;52.490;13.326;2023-08-07T05:18:13;4.00;;;3.63;;
29380;SDS011;16364;52.490;13.326;2023-08-07T05:20:39;4.03;;;3.40;;
29380;SDS011;16364;52.490;13.326;2023-08-07T05:23:04;4.43;;;3.00;;
29380;SDS011;16364;52.490;13.326;2023-08-07T05:25:29;7.93;;;3.60;;
29380;SDS011;16364;52.490;13.326;2023-08-07T05:27:55;3.53;;;2.97;;
29380;SDS011;16364;52.490;13.326;2023-08-07T05:30:20;3.73;;;3.43;;
29380;SDS011;16364;52.490;13.326;2023-08-07T05:32:45;10.80;;;3.70;;
29380;SDS011;16364;52.490;13.326;2023-08-07T05:35:10;3.73;;;3.33;;
29380;SDS011;16364;52.490;13.326;2023-08-07T05:37:36;4.83;;;3.10;;
29380;SDS011;16364;52.490;13.326;2023-08-07T05:40:01;6.33;;;3.37;;
29380;SDS011;16364;52.490;13.326;2023-08-07T05:42:27;4.20;;;3.83;;
29380;SDS011;16364;52.490;13.326;2023-08-07T05:44:52;4.50;;;4.00;;
29380;SDS011;16364;52.490;13.326;2023-08-07T05:47:18;4.20;;;3.10;;
29380;SDS011;16364;52.490;13.326;2023-08-07T05:49:43;5.43;;;3.07;;
29380;SDS011;16364;52.490;13.326;2023-08-07T05:52:09;5.83;;;3.40;;
29380;SDS011;16364;52.490;13.326;2023-08-07T05:54:34;4.23;;;3.27;;
29380;SDS011;16364;52.490;13.326;2023-08-07T05:56:59;3.63;;;3.27;;
29380;SDS011;16364;52.490;13.326;2023-08-07T05:59:24;5.70;;;3.37;;
29380;SDS011;16364;52.490;13.326;2023-08-07T06:01:50;3.63;;;3.33;;
29380;SDS011;16364;52.490;13.326;2023-08-07T06:04:16;6.90;;;3.50;;
29380;SDS011;16364;52.490;13.326;2023-08-07T06:06:41;3.33;;;3.13;;
29380;SDS011;16364;52.490;13.326;2023-08-07T06:09:07;6.67;;;3.10;;
29380;SDS011;16364;52.490;13.326;2023-08-07T06:11:33;4.03;;;3.13;;
29380;SDS011;16364;52.490;13.326;2023-08-07T06:13:58;5.40;;;2.83;;
29380;SDS011;16364;52.490;13.326;2023-08-07T06:16:23;3.30;;;3.03;;
29380;SDS011;16364;52.490;13.326;2023-08-07T06:18:49;4.70;;;2.83;;
29380;SDS011;16364;52.490;13.326;2023-08-07T06:21:14;4.50;;;4.10;;
29380;SDS011;16364;52.490;13.326;2023-08-07T06:23:39;3.90;;;2.67;;
29380;SDS011;16364;52.490;13.326;2023-08-07T06:26:04;3.00;;;2.60;;
29380;SDS011;16364;52.490;13.326;2023-08-07T06:28:33;2.63;;;2.43;;
29380;SDS011;16364;52.490;13.326;2023-08-07T06:31:05;5.97;;;2.47;;
29380;SDS011;16364;52.490;13.326;2023-08-07T06:33:31;4.10;;;2.40;;
29380;SDS011;16364;52.490;13.326;2023-08-07T06:35:57;2.50;;;2.30;;
29380;SDS011;16364;52.490;13.326;2023-08-07T06:38:22;2.77;;;2.13;;
29380;SDS011;16364;52.490;13.326;2023-08-07T06:40:47;2.50;;;2.30;;
29380;SDS011;16364;52.490;13.326;2023-08-07T06:43:12;3.90;;;2.27;;
29380;SDS011;16364;52.490;13.326;2023-08-07T06:45:37;5.83;;;2.30;;
29380;SDS011;16364;52.490;13.326;2023-08-07T06:48:03;9.83;;;2.27;;
29380;SDS011;16364;52.490;13.326;2023-08-07T06:50:28;3.10;;;2.10;;
29380;SDS011;16364;52.490;13.326;2023-08-07T06:52:53;3.80;;;3.37;;
29380;SDS011;16364;52.490;13.326;2023-08-07T06:55:19;6.00;;;2.43;;
29380;SDS011;16364;52.490;13.326;2023-08-07T06:57:44;2.83;;;2.20;;
29380;SDS011;16364;52.490;13.326;2023-08-07T07:00:10;1.80;;;1.70;;
29380;SDS011;16364;52.490;13.326;2023-08-07T07:02:36;2.00;;;1.90;;
29380;SDS011;16364;52.490;13.326;2023-08-07T07:05:01;3.10;;;2.00;;
29380;SDS011;16364;52.490;13.326;2023-08-07T07:07:26;2.83;;;1.80;;
29380;SDS011;16364;52.490;13.326;2023-08-07T07:09:51;1.87;;;1.77;;
29380;SDS011;16364;52.490;13.326;2023-08-07T07:12:16;4.77;;;1.87;;
29380;SDS011;16364;52.490;13.326;2023-08-07T07:14:42;4.40;;;2.20;;
29380;SDS011;16364;52.490;13.326;2023-08-07T07:17:07;2.73;;;1.90;;
29380;SDS011;16364;52.490;13.326;2023-08-07T07:19:32;4.80;;;1.80;;
29380;SDS011;16364;52.490;13.326;2023-08-07T07:21:58;2.20;;;2.00;;
29380;SDS011;16364;52.490;13.326;2023-08-07T07:24:23;3.23;;;1.60;;
29380;SDS011;16364;52.490;13.326;2023-08-07T07:26:48;3.37;;;2.10;;
29380;SDS011;16364;52.490;13.326;2023-08-07T07:29:13;2.37;;;1.80;;
29380;SDS011;16364;52.490;13.326;2023-08-07T07:31:39;2.60;;;1.90;;
29380;SDS011;16364;52.490;13.326;2023-08-07T07:34:04;1.93;;;1.50;;
29380;SDS011;16364;52.490;13.326;2023-08-07T07:36:29;5.40;;;1.70;;
29380;SDS011;16364;52.490;13.326;2023-08-07T07:38:54;2.20;;;1.70;;
29380;SDS011;16364;52.490;13.326;2023-08-07T07:41:21;3.30;;;1.70;;
29380;SDS011;16364;52.490;13.326;2023-08-07T07:43:47;1.87;;;1.73;;
29380;SDS011;16364;52.490;13.326;2023-08-07T07:46:12;3.53;;;1.70;;
29380;SDS011;16364;52.490;13.326;2023-08-07T07:48:37;2.53;;;1.77;;
29380;SDS011;16364;52.490;13.326;2023-08-07T07:51:03;2.10;;;1.90;;
29380;SDS011;16364;52.490;13.326;2023-08-07T07:53:28;4.00;;;1.77;;
29380;SDS011;16364;52.490;13.326;2023-08-07T07:55:53;2.13;;;1.63;;
29380;SDS011;16364;52.490;13.326;2023-08-07T07:58:19;3.00;;;1.57;;
29380;SDS011;16364;52.490;13.326;2023-08-07T08:00:45;2.20;;;1.63;;
29380;SDS011;16364;52.490;13.326;2023-08-07T08:03:10;2.00;;;1.50;;
29380;SDS011;16364;52.490;13.326;2023-08-07T08:05:37;7.27;;;2.27;;
29380;SDS011;16364;52.490;13.326;2023-08-07T08:08:02;2.47;;;1.60;;
29380;SDS011;16364;52.490;13.326;2023-08-07T08:10:28;2.23;;;1.70;;
29380;SDS011;16364;52.490;13.326;2023-08-07T08:12:56;2.70;;;1.53;;
29380;SDS011;16364;52.490;13.326;2023-08-07T08:15:21;1.97;;;1.87;;
29380;SDS011;16364;52.490;13.326;2023-08-07T08:17:47;3.07;;;1.70;;
29380;SDS011;16364;52.490;13.326;2023-08-07T08:20:12;2.80;;;1.90;;
29380;SDS011;16364;52.490;13.326;2023-08-07T08:22:40;4.23;;;1.90;;
29380;SDS011;16364;52.490;13.326;2023-08-07T08:25:06;5.67;;;2.10;;
29380;SDS011;16364;52.490;13.326;2023-08-07T08:27:31;1.80;;;1.70;;
29380;SDS011;16364;52.490;13.326;2023-08-07T08:29:57;5.53;;;2.33;;
29380;SDS011;16364;52.490;13.326;2023-08-07T08:32:22;3.80;;;2.30;;
29380;SDS011;16364;52.490;13.326;2023-08-07T08:34:47;1.90;;;1.80;;
29380;SDS011;16364;52.490;13.326;2023-08-07T08:37:14;1.93;;;1.70;;
29380;SDS011;16364;52.490;13.326;2023-08-07T08:39:39;2.30;;;1.83;;
29380;SDS011;16364;52.490;13.326;2023-08-07T08:42:05;2.67;;;2.00;;
29380;SDS011;16364;52.490;13.326;2023-08-07T08:44:30;2.03;;;1.80;;
29380;SDS011;16364;52.490;13.326;2023-08-07T08:46:56;3.10;;;1.80;;
29380;SDS011;16364;52.490;13.326;2023-08-07T08:49:26;2.20;;;1.60;;
29380;SDS011;16364;52.490;13.326;2023-08-07T08:51:53;2.83;;;1.87;;
29380;SDS011;16364;52.490;13.326;2023-08-07T08:54:18;2.87;;;1.67;;
29380;SDS011;16364;52.490;13.326;2023-08-07T08:56:43;2.10;;;1.50;;
29380;SDS011;16364;52.490;13.326;2023-08-07T08:59:09;1.77;;;1.63;;
29380;SDS011;16364;52.490;13.326;2023-08-07T09:01:34;1.70;;;1.60;;
29380;SDS011;16364;52.490;13.326;2023-08-07T09:03:59;2.97;;;1.63;;
29380;SDS011;16364;52.490;13.326;2023-08-07T09:06:25;2.10;;;1.60;;
29380;SDS011;16364;52.490;13.326;2023-08-07T09:08:51;3.03;;;1.63;;
29380;SDS011;16364;52.490;13.326;2023-08-07T09:11:17;3.53;;;1.60;;
29380;SDS011;16364;52.490;13.326;2023-08-07T09:13:44;2.13;;;1.60;;
29380;SDS011;16364;52.490;13.326;2023-08-07T09:16:10;3.93;;;1.90;;
29380;SDS011;16364;52.490;13.326;2023-08-07T09:18:36;2.50;;;1.70;;
29380;SDS011;16364;52.490;13.326;2023-08-07T09:21:01;2.23;;;2.03;;
29380;SDS011;16364;52.490;13.326;2023-08-07T09:23:26;2.50;;;2.10;;
29380;SDS011;16364;52.490;13.326;2023-08-07T09:25:59;3.33;;;1.93;;
29380;SDS011;16364;52.490;13.326;2023-08-07T09:28:24;2.50;;;2.30;;
29380;SDS011;16364;52.490;13.326;2023-08-07T09:30:51;2.73;;;1.80;;
29380;SDS011;16364;52.490;13.326;2023-08-07T09:33:19;2.37;;;1.80;;
29380;SDS011;16364;52.490;13.326;2023-08-07T09:35:49;3.00;;;2.37;;
29380;SDS011;16364;52.490;13.326;2023-08-07T09:38:14;3.53;;;1.80;;
29380;SDS011;16364;52.490;13.326;2023-08-07T09:40:39;4.83;;;1.80;;
29380;SDS011;16364;52.490;13.326;2023-08-07T09:43:07;6.07;;;1.60;;
29380;SDS011;16364;52.490;13.326;2023-08-07T09:45:32;4.20;;;1.90;;
29380;SDS011;16364;52.490;13.326;2023-08-07T09:48:03;2.90;;;1.57;;
29380;SDS011;16364;52.490;13.326;2023-08-07T09:50:29;3.53;;;1.50;;
29380;SDS011;16364;52.490;13.326;2023-08-07T09:52:55;1.60;;;1.50;;
29380;SDS011;16364;52.490;13.326;2023-08-07T09:55:20;3.73;;;1.60;;
29380;SDS011;16364;52.490;13.326;2023-08-07T09:57:46;2.70;;;1.50;;
29380;SDS011;16364;52.490;13.326;2023-08-07T10:00:11;2.17;;;1.43;;
29380;SDS011;16364;52.490;13.326;2023-08-07T10:02:37;3.50;;;1.50;;
29380;SDS011;16364;52.490;13.326;2023-08-07T10:05:04;2.90;;;1.37;;
29380;SDS011;16364;52.490;13.326;2023-08-07T10:07:30;2.90;;;1.37;;
29380;SDS011;16364;52.490;13.326;2023-08-07T10:09:55;2.33;;;1.20;;
29380;SDS011;16364;52.490;13.326;2023-08-07T10:12:20;1.50;;;1.40;;
29380;SDS011;16364;52.490;13.326;2023-08-07T10:14:46;1.70;;;1.17;;
29380;SDS011;16364;52.490;13.326;2023-08-07T10:17:11;1.60;;;1.30;;
29380;SDS011;16364;52.490;13.326;2023-08-07T10:19:37;1.67;;;1.30;;
29380;SDS011;16364;52.490;13.326;2023-08-07T10:22:04;2.73;;;1.27;;
29380;SDS011;16364;52.490;13.326;2023-08-07T10:24:29;1.97;;;1.20;;
29380;SDS011;16364;52.490;13.326;2023-08-07T10:26:55;1.93;;;1.30;;
29380;SDS011;16364;52.490;13.326;2023-08-07T10:29:21;1.93;;;1.20;;
29380;SDS011;16364;52.490;13.326;2023-08-07T10:31:50;2.30;;;1.20;;
29380;SDS011;16364;52.490;13.326;2023-08-07T10:34:17;2.33;;;1.30;;
29380;SDS011;16364;52.490;13.326;2023-08-07T10:36:42;2.20;;;1.33;;
29380;SDS011;16364;52.490;13.326;2023-08-07T10:41:44;1.50;;;1.40;;
29380;SDS011;16364;52.490;13.326;2023-08-07T10:44:19;1.53;;;1.10;;
29380;SDS011;16364;52.490;13.326;2023-08-07T10:46:48;4.50;;;1.37;;
29380;SDS011;16364;52.490;13.326;2023-08-07T10:51:55;3.23;;;1.40;;
29380;SDS011;16364;52.490;13.326;2023-08-07T10:54:20;2.17;;;1.20;;
29380;SDS011;16364;52.490;13.326;2023-08-07T10:56:51;3.37;;;1.13;;
29380;SDS011;16364;52.490;13.326;2023-08-07T10:59:17;1.90;;;1.20;;
29380;SDS011;16364;52.490;13.326;2023-08-07T11:01:42;3.40;;;1.50;;
29380;SDS011;16364;52.490;13.326;2023-08-07T11:06:34;2.03;;;1.00;;
29380;SDS011;16364;52.490;13.326;2023-08-07T11:09:00;1.20;;;1.10;;
29380;SDS011;16364;52.490;13.326;2023-08-07T11:11:28;1.90;;;1.33;;
29380;SDS011;16364;52.490;13.326;2023-08-07T11:13:53;1.77;;;1.30;;
29380;SDS011;16364;52.490;13.326;2023-08-07T11:16:19;6.03;;;1.67;;
29380;SDS011;16364;52.490;13.326;2023-08-07T11:18:46;4.33;;;1.30;;
29380;SDS011;16364;52.490;13.326;2023-08-07T11:21:12;2.13;;;1.50;;
29380;SDS011;16364;52.490;13.326;2023-08-07T11:23:38;1.70;;;1.30;;
29380;SDS011;16364;52.490;13.326;2023-08-07T11:26:03;1.60;;;1.50;;
29380;SDS011;16364;52.490;13.326;2023-08-07T11:28:29;5.10;;;1.93;;
29380;SDS011;16364;52.490;13.326;2023-08-07T11:30:54;1.50;;;1.40;;
29380;SDS011;16364;52.490;13.326;2023-08-07T11:33:21;6.03;;;1.83;;
29380;SDS011;16364;52.490;13.326;2023-08-07T11:35:47;2.17;;;2.07;;
29380;SDS011;16364;52.490;13.326;2023-08-07T11:38:12;4.00;;;1.63;;
29380;SDS011;16364;52.490;13.326;2023-08-07T11:40:38;2.50;;;1.70;;
29380;SDS011;16364;52.490;13.326;2023-08-07T11:43:03;2.70;;;1.70;;
29380;SDS011;16364;52.490;13.326;2023-08-07T11:45:28;2.90;;;1.60;;
29380;SDS011;16364;52.490;13.326;2023-08-07T11:47:54;3.03;;;1.67;;
29380;SDS011;16364;52.490;13.326;2023-08-07T11:50:22;4.67;;;3.40;;
29380;SDS011;16364;52.490;13.326;2023-08-07T11:52:47;3.13;;;1.60;;
29380;SDS011;16364;52.490;13.326;2023-08-07T11:55:14;2.23;;;1.60;;
29380;SDS011;16364;52.490;13.326;2023-08-07T11:57:39;1.70;;;1.60;;
29380;SDS011;16364;52.490;13.326;2023-08-07T12:00:08;1.60;;;1.40;;
29380;SDS011;16364;52.490;13.326;2023-08-07T12:02:40;6.50;;;2.00;;
29380;SDS011;16364;52.490;13.326;2023-08-07T12:05:07;2.90;;;1.50;;
29380;SDS011;16364;52.490;13.326;2023-08-07T12:07:33;1.83;;;1.60;;
29380;SDS011;16364;52.490;13.326;2023-08-07T12:09:58;2.80;;;1.37;;
29380;SDS011;16364;52.490;13.326;2023-08-07T12:12:23;1.43;;;1.20;;
29380;SDS011;16364;52.490;13.326;2023-08-07T12:14:52;1.53;;;1.27;;
29380;SDS011;16364;52.490;13.326;2023-08-07T12:17:17;2.80;;;1.80;;
29380;SDS011;16364;52.490;13.326;2023-08-07T12:19:42;2.00;;;1.40;;
29380;SDS011;16364;52.490;13.326;2023-08-07T12:22:09;1.33;;;1.20;;
29380;SDS011;16364;52.490;13.326;2023-08-07T12:24:35;2.20;;;1.53;;
29380;SDS011;16364;52.490;13.326;2023-08-07T12:27:00;2.27;;;1.50;;
29380;SDS011;16364;52.490;13.326;2023-08-07T12:29:26;1.87;;;1.50;;
29380;SDS011;16364;52.490;13.326;2023-08-07T12:31:54;2.13;;;1.50;;
29380;SDS011;16364;52.490;13.326;2023-08-07T12:34:19;5.43;;;1.83;;
29380;SDS011;16364;52.490;13.326;2023-08-07T12:36:44;3.40;;;1.30;;
29380;SDS011;16364;52.490;13.326;2023-08-07T12:39:10;1.63;;;1.33;;
29380;SDS011;16364;52.490;13.326;2023-08-07T12:41:35;1.90;;;1.70;;
29380;SDS011;16364;52.490;13.326;2023-08-07T12:44:00;1.90;;;1.20;;
29380;SDS011;16364;52.490;13.326;2023-08-07T12:46:26;2.10;;;1.40;;
29380;SDS011;16364;52.490;13.326;2023-08-07T12:48:51;7.30;;;1.50;;
29380;SDS011;16364;52.490;13.326;2023-08-07T12:51:16;3.70;;;1.50;;
29380;SDS011;16364;52.490;13.326;2023-08-07T12:53:41;3.33;;;2.00;;
29380;SDS011;16364;52.490;13.326;2023-08-07T12:56:07;2.53;;;1.97;;
29380;SDS011;16364;52.490;13.326;2023-08-07T12:58:32;7.27;;;1.83;;
29380;SDS011;16364;52.490;13.326;2023-08-07T13:00:57;6.50;;;2.00;;
29380;SDS011;16364;52.490;13.326;2023-08-07T13:03:23;9.03;;;2.57;;
29380;SDS011;16364;52.490;13.326;2023-08-07T13:05:48;4.90;;;1.80;;
29380;SDS011;16364;52.490;13.326;2023-08-07T13:08:13;2.70;;;1.93;;
29380;SDS011;16364;52.490;13.326;2023-08-07T13:10:38;6.30;;;1.80;;
29380;SDS011;16364;52.490;13.326;2023-08-07T13:13:04;3.47;;;1.60;;
29380;SDS011;16364;52.490;13.326;2023-08-07T13:15:30;2.30;;;1.63;;
29380;SDS011;16364;52.490;13.326;2023-08-07T13:17:55;4.87;;;1.80;;
29380;SDS011;16364;52.490;13.326;2023-08-07T13:20:21;3.40;;;1.80;;
29380;SDS011;16364;52.490;13.326;2023-08-07T13:22:46;3.00;;;1.50;;
29380;SDS011;16364;52.490;13.326;2023-08-07T13:25:12;3.30;;;2.53;;
29380;SDS011;16364;52.490;13.326;2023-08-07T13:27:37;5.90;;;2.20;;
29380;SDS011;16364;52.490;13.326;2023-08-07T13:30:03;3.10;;;1.60;;
29380;SDS011;16364;52.490;13.326;2023-08-07T13:32:28;4.77;;;2.10;;
29380;SDS011;16364;52.490;13.326;2023-08-07T13:34:54;6.17;;;1.73;;
29380;SDS011;16364;52.490;13.326;2023-08-07T13:37:19;7.37;;;2.57;;
29380;SDS011;16364;52.490;13.326;2023-08-07T13:39:45;5.30;;;1.70;;
29380;SDS011;16364;52.490;13.326;2023-08-07T13:42:13;3.60;;;1.43;;
29380;SDS011;16364;52.490;13.326;2023-08-07T13:44:38;4.50;;;1.20;;
29380;SDS011;16364;52.490;13.326;2023-08-07T13:47:04;3.10;;;1.47;;
29380;SDS011;16364;52.490;13.326;2023-08-07T13:49:29;3.60;;;1.27;;
29380;SDS011;16364;52.490;13.326;2023-08-07T13:51:55;2.07;;;1.10;;
29380;SDS011;16364;52.490;13.326;2023-08-07T13:54:20;3.37;;;1.40;;
29380;SDS011;16364;52.490;13.326;2023-08-07T13:56:46;8.13;;;1.57;;
29380;SDS011;16364;52.490;13.326;2023-08-07T13:59:11;4.00;;;1.30;;
29380;SDS011;16364;52.490;13.326;2023-08-07T14:01:36;6.53;;;1.33;;
29380;SDS011;16364;52.490;13.326;2023-08-07T14:04:02;7.10;;;1.40;;
29380;SDS011;16364;52.490;13.326;2023-08-07T14:06:27;3.57;;;1.30;;
29380;SDS011;16364;52.490;13.326;2023-08-07T14:08:52;3.53;;;1.50;;
29380;SDS011;16364;52.490;13.326;2023-08-07T14:11:17;4.50;;;1.40;;
29380;SDS011;16364;52.490;13.326;2023-08-07T14:13:44;4.23;;;1.73;;
29380;SDS011;16364;52.490;13.326;2023-08-07T14:16:10;4.33;;;1.93;;
29380;SDS011;16364;52.490;13.326;2023-08-07T14:18:36;7.20;;;1.67;;
29380;SDS011;16364;52.490;13.326;2023-08-07T14:21:01;7.50;;;1.90;;
29380;SDS011;16364;52.490;13.326;2023-08-07T14:23:26;4.07;;;1.77;;
29380;SDS011;16364;52.490;13.326;2023-08-07T14:25:51;2.60;;;1.60;;
29380;SDS011;16364;52.490;13.326;2023-08-07T14:28:18;4.00;;;1.47;;
29380;SDS011;16364;52.490;13.326;2023-08-07T14:30:43;3.73;;;1.40;;
29380;SDS011;16364;52.490;13.326;2023-08-07T14:33:08;5.50;;;1.60;;
29380;SDS011;16364;52.490;13.326;2023-08-07T14:35:33;5.03;;;1.63;;